Time;durP1;ratioP1;P1;durP2;ratioP2;P2;SDS_P1;SDS_P2;PMS_P1;PMS_P2;Temp;Humidity;BMP_temperature;BMP_pressure;BME280_temperature;BME280_humidity;BME280_pressure;Samples;Min_cycle;Max_cycle;Signal;HPM_P1;HPM_P2
2023/02/19 01:32:41;;;;;;;18.00;8.40;;;;;;;7.22;58.97;99362.75;6073404;23;21165;31
2023/02/19 01:35:42;;;;;;;16.38;7.28;;;;;;;6.96;59.44;99342.84;4914398;29;20084;-95
2023/02/19 01:41:29;;;;;;;17.02;7.20;;;;;;;6.81;59.60;99362.97;4931855;29;20102;-94
2023/02/19 01:44:44;;;;;;;19.60;8.60;;;;;;;6.97;59.19;99385.44;4919081;29;20044;-95
2023/02/19 01:47:49;;;;;;;14.05;7.43;;;;;;;6.79;59.22;99367.75;4843688;29;20040;-94
2023/02/19 01:51:06;;;;;;;13.70;6.72;;;;;;;6.81;59.18;99356.81;4902908;29;20028;-95
2023/02/19 01:54:21;;;;;;;;;;;;;;;;;;;;;
2023/02/19 01:56:50;;;;;;;;;;;;;;;7.04;59.21;99396.78;4863564;29;20057;-94
2023/02/19 04:04:41;;;;;;;14.57;10.23;;;;;;;5.94;62.33;99459.50;5444315;23;20029;-94
2023/02/19 05:01:03;;;;;;;16.13;7.82;;;;;;;6.63;60.36;99483.59;4974765;28;20049;-96
2023/02/19 05:04:03;;;;;;;14.52;5.90;;;;;;;6.64;59.57;99491.41;4961020;29;20062;-95
2023/02/19 06:34:33;;;;;;;14.15;7.90;;;;;;;9.07;53.95;99604.56;5049185;23;20243;-93
2023/02/19 06:36:59;;;;;;;11.45;6.85;;;;;;;9.26;53.17;99626.50;4975089;28;20034;-94
2023/02/19 06:39:31;;;;;;;14.27;7.55;;;;;;;9.30;53.22;99619.56;4991908;28;20026;-95
2023/02/19 06:42:06;;;;;;;10.68;6.82;;;;;;;9.50;52.74;99635.06;4978106;28;20026;-94
2023/02/19 06:44:41;;;;;;;12.40;7.28;;;;;;;9.60;52.99;99637.03;4977459;28;20033;-94
2023/02/19 06:47:16;;;;;;;13.43;7.63;;;;;;;9.54;52.68;99614.66;4979770;28;20034;-93
2023/02/19 06:49:50;;;;;;;17.58;8.25;;;;;;;9.70;52.60;99629.06;4994278;28;20037;-93
2023/02/19 06:52:19;;;;;;;22.05;10.40;;;;;;;9.79;52.10;99621.31;4993776;28;20022;-95
2023/02/19 06:54:54;;;;;;;20.40;10.82;;;;;;;9.75;51.68;99602.19;4978010;28;20061;-95
2023/02/19 06:57:20;;;;;;;20.15;11.15;;;;;;;9.93;51.87;99624.41;4979632;28;20034;-94
2023/02/19 07:00:00;;;;;;;18.73;10.77;;;;;;;10.08;51.89;99630.69;4978482;28;20022;-93
2023/02/19 07:02:31;;;;;;;23.48;11.75;;;;;;;10.03;51.87;99592.19;4979802;28;20025;-93
2023/02/19 07:05:21;;;;;;;17.80;11.00;;;;;;;10.37;51.53;99618.78;4980572;28;20036;-93
2023/02/19 07:07:49;;;;;;;16.10;8.88;;;;;;;10.61;51.41;99628.06;4981394;28;20181;-95
2023/02/19 07:10:24;;;;;;;14.27;8.60;;;;;;;10.80;51.03;99608.75;4981309;28;20093;-96
2023/02/19 07:12:58;;;;;;;12.88;6.13;;;;;;;10.92;51.35;99610.13;5000782;28;20093;-94
2023/02/19 08:22:01;;;;;;;3.80;2.22;;;;;;;14.75;40.53;99613.34;5174076;23;20378;-88
2023/02/19 08:24:43;;;;;;;3.13;1.95;;;;;;;14.87;40.22;99608.28;4995318;28;20061;-95
2023/02/19 08:27:12;;;;;;;3.17;1.95;;;;;;;14.81;39.87;99605.94;4969338;28;20042;-95
2023/02/19 08:29:48;;;;;;;3.22;2.05;;;;;;;14.80;39.89;99586.19;4949763;28;20034;-96
2023/02/19 08:32:45;;;;;;;5.20;2.15;;;;;;;14.90;40.17;99577.91;4998734;28;20006;-96
2023/02/19 08:35:35;;;;;;;;;;;;;;;;;;;;;
2023/02/19 08:38:15;;;;;;;7.00;2.88;;;;;;;15.06;40.02;99597.47;4913952;29;20050;-94
2023/02/19 08:40:57;;;;;;;4.18;2.35;;;;;;;14.90;39.94;99572.47;4957537;29;20090;-95
2023/02/19 08:43:24;;;;;;;7.63;2.28;;;;;;;14.90;39.97;99574.38;4955893;28;20099;-95
2023/02/19 08:46:08;;;;;;;3.83;2.10;;;;;;;15.15;40.21;99600.34;4942719;29;20050;-95
2023/02/19 08:48:50;;;;;;;5.82;1.88;;;;;;;15.21;40.21;99593.75;4944401;29;20104;-95
2023/02/19 08:51:21;;;;;;;;;;;;;;;15.26;40.35;99601.81;4940511;29;20039;-95
2023/02/19 08:53:58;;;;;;;4.60;2.28;;;;;;;15.25;40.09;99585.81;4939130;29;19914;-94
2023/02/19 10:41:26;;;;;;;2.83;1.38;;;;;;;16.75;37.46;99458.63;5036445;28;20050;-95
2023/02/19 10:44:13;;;;;;;2.25;1.25;;;;;;;16.94;37.38;99477.50;5000832;28;20017;-95
2023/02/19 10:46:50;;;;;;;2.50;1.40;;;;;;;16.89;37.38;99453.16;5002722;28;20052;-96
2023/02/19 10:49:49;;;;;;;4.03;1.73;;;;;;;16.98;37.38;99444.28;4978107;28;20067;-96
2023/02/19 10:52:24;;;;;;;4.00;1.25;;;;;;;17.04;37.39;99454.72;4893507;28;20027;-95
2023/02/19 10:54:55;;;;;;;4.20;1.30;;;;;;;17.21;36.95;99464.13;4946744;28;20049;-96
2023/02/19 10:57:36;;;;;;;3.95;1.50;;;;;;;17.20;36.84;99463.28;4939445;28;20087;-96
2023/02/19 11:00:26;;;;;;;3.03;1.17;;;;;;;17.06;37.08;99435.38;4992245;28;20025;-96
2023/02/19 11:03:24;;;;;;;2.10;1.20;;;;;;;17.28;36.42;99459.81;4960014;28;20054;-96
2023/02/19 11:06:10;;;;;;;1.33;0.90;;;;;;;17.40;36.59;99461.19;4976561;28;20043;-96
2023/02/19 11:08:54;;;;;;;2.13;1.20;;;;;;;17.54;36.23;99459.97;4962706;28;20501;-96
2023/02/19 11:11:38;;;;;;;3.22;1.50;;;;;;;17.54;35.78;99435.47;4993333;28;20014;-96
2023/02/19 11:14:23;;;;;;;2.22;1.33;;;;;;;17.71;35.52;99455.72;4976433;28;20034;-95
2023/02/19 11:17:07;;;;;;;3.95;1.60;;;;;;;17.58;35.07;99430.22;4960698;28;20062;-95
2023/02/19 11:19:47;;;;;;;2.40;1.20;;;;;;;17.81;35.12;99454.66;4979711;28;20042;-94
2023/02/19 12:03:35;;;;;;;2.25;1.55;;;;;;;17.47;36.08;99440.56;6074599;23;21173;-95
2023/02/19 12:06:48;;;;;;;2.45;1.30;;;;;;;17.43;36.05;99422.44;4969797;28;20046;-95
2023/02/19 12:09:37;;;;;;;4.47;1.75;;;;;;;17.33;36.45;99421.59;4956759;28;20109;-96
2023/02/19 12:12:21;;;;;;;2.97;1.27;;;;;;;17.35;36.41;99424.81;4976497;28;20049;-96
2023/02/19 12:14:50;;;;;;;1.63;1.10;;;;;;;17.34;36.37;99416.94;4972671;28;20027;-96
2023/02/19 12:18:06;;;;;;;6.88;1.80;;;;;;;17.34;36.26;99417.75;4962885;28;20023;-96
2023/02/19 12:20:51;;;;;;;3.88;1.50;;;;;;;17.29;36.59;99419.81;4976959;28;20060;-96
2023/02/19 12:23:31;;;;;;;7.65;1.42;;;;;;;17.32;36.64;99413.75;4973661;28;20027;-95
2023/02/19 12:26:29;;;;;;;2.80;1.58;;;;;;;17.34;36.95;99416.94;4970576;28;20027;-95
2023/02/19 12:29:33;;;;;;;4.82;2.08;;;;;;;17.35;36.53;99413.13;4957016;28;20027;-96
2023/02/19 12:32:15;;;;;;;3.78;1.77;;;;;;;17.23;36.83;99400.09;4971677;28;20507;-95
2023/02/19 12:34:59;;;;;;;;;;;;;;;17.33;36.69;99418.88;4943237;28;20122;-95
2023/02/19 12:37:55;;;;;;;3.17;1.48;;;;;;;17.33;36.71;99416.16;4970159;28;20380;-96
2023/02/19 12:41:06;;;;;;;1.58;1.20;;;;;;;17.42;36.30;99408.03;4970891;28;20057;-95
2023/02/19 12:43:33;;;;;;;2.63;1.25;;;;;;;17.35;36.56;99375.03;4962826;28;20017;-95
2023/02/19 12:46:36;;;;;;;3.35;1.30;;;;;;;17.41;36.14;99376.50;4974796;28;20034;-96
2023/02/19 12:49:25;;;;;;;2.75;1.40;;;;;;;17.41;36.67;99352.00;5321625;23;20035;-93
2023/02/19 12:52:00;;;;;;;2.22;1.40;;;;;;;17.56;36.12;99361.66;4990060;28;20081;-96
2023/02/19 12:54:39;;;;;;;2.05;1.40;;;;;;;17.60;36.26;99353.63;4964527;28;20027;-95
2023/02/19 12:57:28;;;;;;;1.83;1.30;;;;;;;17.69;36.24;99359.94;4981306;28;20034;-96
2023/02/19 13:00:45;;;;;;;13.52;2.35;;;;;;;17.79;36.27;99367.81;4992314;28;20030;-95
2023/02/19 13:03:48;;;;;;;6.22;2.00;;;;;;;17.72;36.55;99370.16;4931974;29;20533;-96
2023/02/19 13:06:39;;;;;;;3.45;1.50;;;;;;;17.77;36.41;99364.59;4895327;29;20043;-96
2023/02/19 13:10:05;;;;;;;1.70;1.10;;;;;;;17.74;36.13;99363.31;4900884;29;20043;-95
2023/02/19 13:13:05;;;;;;;1.77;1.38;;;;;;;17.56;36.22;99337.16;4879731;29;20140;-96
2023/02/19 13:15:48;;;;;;;1.33;0.98;;;;;;;17.56;36.13;99339.88;4941106;29;20541;-95
2023/02/19 13:18:24;;;;;;;1.92;1.20;;;;;;;17.55;36.15;99341.78;4938381;29;20190;-95
2023/02/19 13:21:00;;;;;;;5.72;1.30;;;;;;;17.66;36.51;99355.91;4961296;28;20054;-95
2023/02/19 13:27:11;;;;;;;2.25;1.23;;;;;;;17.51;36.65;99343.53;4994115;28;19916;-94
2023/02/19 13:30:37;;;;;;;5.15;1.20;;;;;;;17.37;36.63;99323.81;4957064;28;20042;-94
2023/02/19 13:33:13;;;;;;;1.77;1.13;;;;;;;17.34;36.59;99346.19;4911184;29;20422;-96
2023/02/19 13:36:00;;;;;;;1.98;1.20;;;;;;;17.23;36.80;99325.81;4911679;29;20044;-96
2023/02/19 13:38:28;;;;;;;1.65;1.00;;;;;;;17.20;36.74;99316.34;4978515;28;20073;-95
2023/02/19 13:41:18;;;;;;;2.40;1.20;;;;;;;17.14;37.15;99312.97;4958093;28;20034;-95
2023/02/19 13:43:54;;;;;;;6.35;1.10;;;;;;;17.26;37.01;99325.19;4980364;28;20022;-95
2023/02/19 13:49:32;;;;;;;2.15;1.33;;;;;;;17.26;37.33;99319.75;5269923;23;20050;-94
2023/02/19 13:52:06;;;;;;;2.22;1.25;;;;;;;17.16;37.11;99302.59;5014216;28;20093;-95
2023/02/19 13:54:39;;;;;;;4.03;1.40;;;;;;;17.27;37.11;99305.03;5446306;23;20081;-94
2023/02/19 13:57:27;;;;;;;5.30;1.30;;;;;;;17.35;37.23;99309.72;4957508;29;20031;-94
2023/02/19 13:59:53;;;;;;;;;;;;;;;17.37;37.12;99311.00;4935810;29;20098;-93
2023/02/19 14:02:24;;;;;;;2.95;1.15;;;;;;;17.40;36.53;99306.81;4958722;29;19914;-95
2023/02/19 14:11:10;;;;;;;2.10;1.33;;;;;;;17.45;36.62;99295.81;5466948;23;20050;-95
2023/02/19 14:13:48;;;;;;;2.65;1.50;;;;;;;17.42;37.07;99299.16;4983567;28;20022;-94
2023/02/19 14:16:37;;;;;;;3.08;1.42;;;;;;;17.49;36.61;99293.22;5012222;28;20037;-95
2023/02/19 14:19:16;;;;;;;2.05;1.20;;;;;;;17.42;36.36;99296.44;5008430;28;20093;-94
2023/02/19 14:21:42;;;;;;;3.00;1.17;;;;;;;17.40;36.81;99271.44;5108072;23;20021;-94
2023/02/19 14:28:24;;;;;;;2.75;1.40;;;;;;;17.44;36.84;99271.63;4946731;28;20068;-94
2023/02/19 14:31:01;;;;;;;3.75;1.65;;;;;;;17.61;36.76;99295.34;5012188;28;20041;-95
2023/02/19 14:36:57;;;;;;;2.10;1.50;;;;;;;17.35;37.19;99271.59;5031249;28;20054;-95
2023/02/19 14:39:47;;;;;;;4.75;2.17;;;;;;;17.32;37.13;99270.28;5011521;28;20042;-95
2023/02/19 14:42:23;;;;;;;7.65;3.75;;;;;;;17.35;37.71;99272.41;4960301;28;20034;-95
2023/02/19 14:45:02;;;;;;;4.22;2.00;;;;;;;17.31;37.51;99271.41;4986330;28;20038;-95
2023/02/19 14:48:22;;;;;;;4.88;2.88;;;;;;;17.25;37.82;99261.00;4998142;28;20026;-95
2023/02/19 14:50:55;;;;;;;3.60;2.00;;;;;;;17.24;37.68;99262.09;5613128;23;20361;-96
2023/02/19 14:56:03;;;;;;;4.70;2.70;;;;;;;17.07;37.81;99250.03;5192141;23;20084;-96
2023/02/19 14:59:12;;;;;;;4.93;2.50;;;;;;;17.07;38.00;99258.22;5014709;28;20025;-96
2023/02/19 15:02:05;;;;;;;4.18;2.47;;;;;;;17.09;38.60;99268.78;4985166;28;20041;-96
2023/02/19 15:09:55;;;;;;;3.90;1.90;;;;;;;16.99;38.09;99269.06;5094357;23;20062;-96
2023/02/19 15:15:38;;;;;;;5.18;3.13;;;;;;;16.84;38.34;99262.13;5029874;28;20420;-95
2023/02/19 15:18:11;;;;;;;7.57;2.70;;;;;;;16.81;38.96;99273.59;4983877;28;20149;-95
2023/02/19 15:20:51;;;;;;;5.00;2.60;;;;;;;16.62;38.86;99250.16;5000535;28;20029;-95
2023/02/19 15:23:29;;;;;;;4.28;2.03;;;;;;;16.62;39.07;99282.78;5000111;28;20046;-94
2023/02/19 15:25:54;;;;;;;4.38;2.67;;;;;;;16.49;39.14;99257.25;4997730;28;20022;-94
2023/02/19 15:28:23;;;;;;;4.72;2.72;;;;;;;16.53;39.34;99265.59;4971881;28;20029;-94
2023/02/19 15:31:32;;;;;;;5.75;2.95;;;;;;;16.43;39.42;99258.50;5007844;28;20192;-94
2023/02/19 15:34:07;;;;;;;7.28;3.50;;;;;;;16.36;39.79;99252.69;4946574;29;20039;-94
2023/02/19 15:36:32;;;;;;;;;;;;;;;16.33;39.96;99258.75;4922286;29;20035;-93
2023/02/19 15:39:00;;;;;;;6.72;3.35;;;;;;;16.28;39.79;99253.44;4933162;29;19911;-94
2023/02/19 15:41:34;;;;;;;7.72;3.53;;;;;;;16.20;39.91;99246.03;4917179;29;20054;-95
2023/02/19 15:44:13;;;;;;;17.58;9.23;;;;;;;16.10;40.13;99239.75;4921638;29;20093;-95
2023/02/19 15:46:45;;;;;;;6.57;3.83;;;;;;;16.05;39.96;99226.28;4919724;29;20110;-95
2023/02/19 15:49:45;;;;;;;6.65;3.95;;;;;;;15.95;39.97;99221.88;4921822;29;20043;-95
2023/02/19 15:52:53;;;;;;;7.72;4.30;;;;;;;15.85;40.46;99207.75;4963200;29;20035;-95
2023/02/19 15:56:27;;;;;;;7.70;4.43;;;;;;;15.86;40.52;99221.03;4938778;29;20033;-95
2023/02/19 15:59:38;;;;;;;7.63;4.85;;;;;;;15.66;40.95;99219.53;4860698;29;20571;-95
2023/02/19 16:02:12;;;;;;;7.85;5.47;;;;;;;15.66;41.50;99230.38;4904627;29;20036;-96
2023/02/19 16:04:49;;;;;;;8.23;4.80;;;;;;;15.66;41.54;99249.38;4916892;29;20039;-94
2023/02/19 16:07:39;;;;;;;9.05;5.07;;;;;;;15.54;42.30;99238.25;4971553;29;20278;-95
2023/02/19 16:10:29;;;;;;;12.82;7.47;;;;;;;15.35;42.41;99230.25;4956832;29;20023;-95
2023/02/19 16:13:22;;;;;;;8.35;4.78;;;;;;;15.34;42.81;99258.50;4956177;29;20078;-95
2023/02/19 16:16:17;;;;;;;8.43;3.97;;;;;;;15.24;42.38;99248.66;4951456;29;20075;-95
2023/02/19 16:18:47;;;;;;;39.55;27.50;;;;;;;15.14;42.65;99235.28;4935309;29;20032;-95
2023/02/19 16:21:17;;;;;;;26.58;18.00;;;;;;;15.20;43.24;99247.66;4936072;29;20028;-96
2023/02/19 16:23:53;;;;;;;16.75;11.20;;;;;;;15.04;43.22;99227.38;4934788;29;20042;-96
2023/02/19 16:26:30;;;;;;;29.58;19.77;;;;;;;14.97;43.64;99221.56;4936022;29;20032;-96
2023/02/19 16:29:06;;;;;;;21.98;14.60;;;;;;;14.93;43.84;99219.44;4937704;29;20036;-96
2023/02/19 16:32:15;;;;;;;20.45;12.15;;;;;;;14.83;43.99;99216.13;4953925;29;20044;-95
2023/02/19 16:35:10;;;;;;;22.35;14.27;;;;;;;14.89;44.54;99239.31;4951914;29;20043;-94
2023/02/19 16:37:51;;;;;;;19.20;11.43;;;;;;;14.81;44.70;99237.28;4950846;29;20027;-94
2023/02/19 16:40:51;;;;;;;21.52;10.63;;;;;;;14.76;45.04;99249.03;4938076;29;20031;-94
2023/02/19 16:47:28;;;;;;;24.85;12.45;;;;;;;14.40;45.47;99236.09;4918238;29;20275;-93
2023/02/19 16:53:50;;;;;;;6.30;3.97;;;;;;;14.50;44.39;99276.53;4934439;29;20068;-94
2023/02/19 18:38:38;;;;;;;15.35;7.75;;;;;;;13.45;49.47;99365.19;948258;23;20311;-90
2023/02/19 18:41:23;;;;;;;19.42;9.23;;;;;;;13.38;49.58;99368.22;4980041;28;20061;-96
2023/02/19 18:43:56;;;;;;;26.50;10.77;;;;;;;13.19;49.88;99346.50;4947335;28;20058;-95
2023/02/19 18:46:48;;;;;;;25.38;12.10;;;;;;;13.12;50.02;99337.91;4982634;28;20027;-96
2023/02/19 18:49:37;;;;;;;;;;;;;;;13.29;50.00;99364.53;4931856;29;20023;-96
2023/02/19 18:55:31;;;;;;;20.67;11.57;;;;;;;13.21;50.43;99374.03;4926996;29;20026;-96
2023/02/19 18:58:46;;;;;;;;;;;;;;;;;;;;;
2023/02/19 19:04:08;;;;;;;21.40;11.02;;;;;;;12.89;51.07;99353.81;5931858;23;20026;-95
2023/02/19 19:06:37;;;;;;;19.55;10.18;;;;;;;12.93;50.84;99364.88;4999722;28;20044;-95
2023/02/19 19:12:22;;;;;;;24.73;11.50;;;;;;;12.88;51.11;99357.59;5021796;28;20092;-96
2023/02/19 19:15:23;;;;;;;22.08;11.70;;;;;;;12.94;51.42;99377.28;5018441;28;20042;-96
2023/02/19 19:18:37;;;;;;;23.07;11.50;;;;;;;12.86;51.11;99384.09;4978509;29;20027;-96
2023/02/19 19:21:09;;;;;;;23.42;10.70;;;;;;;12.80;51.45;99370.91;4929854;29;20045;-95
2023/02/19 19:23:56;;;;;;;20.13;10.18;;;;;;;12.99;51.49;99404.28;4961987;28;20042;-96
2023/02/19 19:26:48;;;;;;;20.23;10.77;;;;;;;12.98;51.62;99410.75;4962243;29;20055;-96
2023/02/19 19:29:34;;;;;;;16.95;9.70;;;;;;;12.88;51.21;99397.31;4935842;28;20039;-96
2023/02/19 19:32:52;;;;;;;20.55;9.45;;;;;;;12.80;51.93;99381.72;4948172;29;20031;-96
2023/02/19 19:35:49;;;;;;;16.92;8.63;;;;;;;12.73;52.46;99384.75;4918316;29;20048;-96
2023/02/19 19:38:56;;;;;;;;;;;;;;;;;;;;;
2023/02/19 19:42:14;;;;;;;26.58;10.68;;;;;;;12.75;53.23;99398.78;4882024;29;20069;-96
2023/02/19 19:45:01;;;;;;;21.08;10.60;;;;;;;12.75;54.40;99420.41;4812720;29;20047;-96
2023/02/19 19:48:02;;;;;;;20.65;11.85;;;;;;;12.77;55.36;99431.72;4802822;29;20039;-95
2023/02/19 19:50:55;;;;;;;25.48;11.88;;;;;;;12.76;56.54;99430.09;4831211;29;20095;-96
2023/02/19 19:53:39;;;;;;;26.33;12.30;;;;;;;12.77;57.45;99434.44;4863742;29;20034;-96
2023/02/19 19:57:07;;;;;;;19.17;11.90;;;;;;;12.65;59.11;99429.38;4845748;29;20117;-96
2023/02/19 19:59:50;;;;;;;20.95;10.90;;;;;;;12.47;58.71;99408.41;4808951;30;20051;-96
2023/02/19 20:02:54;;;;;;;14.00;7.53;;;;;;;12.38;56.84;99415.50;4766572;30;20043;-96
2023/02/19 20:05:35;;;;;;;14.32;6.97;;;;;;;12.37;56.54;99403.06;4778640;29;20297;-96
2023/02/19 20:08:12;;;;;;;15.25;8.70;;;;;;;12.43;57.60;99424.41;4792916;30;20047;-96
2023/02/19 20:10:50;;;;;;;14.27;8.30;;;;;;;12.40;58.62;99429.53;4774451;30;20047;-95
2023/02/19 20:13:27;;;;;;;12.52;7.68;;;;;;;12.39;59.01;99426.03;4772694;30;20040;-95
2023/02/19 20:19:32;;;;;;;13.38;8.52;;;;;;;12.32;60.28;99425.53;4820890;29;20162;-95
2023/02/19 20:22:05;;;;;;;19.33;8.80;;;;;;;12.17;59.98;99402.13;4810566;29;20096;-96
2023/02/19 20:24:49;;;;;;;20.20;9.02;;;;;;;12.24;60.84;99435.03;4807648;29;20054;-96
2023/02/19 20:27:27;;;;;;;16.70;8.27;;;;;;;12.12;60.95;99426.44;4818417;29;20018;-95
2023/02/19 20:30:42;;;;;;;16.88;9.10;;;;;;;12.22;61.13;99439.06;4852247;29;20029;-95
2023/02/19 20:33:16;;;;;;;14.55;7.80;;;;;;;12.12;61.33;99421.06;4878249;29;20048;-96
2023/02/19 20:35:50;;;;;;;17.85;9.27;;;;;;;12.09;61.43;99416.19;4862545;29;20025;-96
2023/02/19 20:38:18;;;;;;;15.80;10.52;;;;;;;12.21;61.59;99438.28;4848500;29;20038;-95
2023/02/19 20:41:01;;;;;;;13.25;8.70;;;;;;;12.10;61.71;99415.94;4846570;29;20045;-95
2023/02/19 20:43:36;;;;;;;16.73;9.65;;;;;;;12.24;61.62;99436.91;4845637;29;20577;-95
2023/02/19 20:46:18;;;;;;;17.23;9.75;;;;;;;12.28;61.75;99437.97;4846689;29;20033;-95
2023/02/19 20:48:47;;;;;;;17.30;9.60;;;;;;;12.20;62.21;99422.34;4854872;29;20033;-95
2023/02/19 20:51:28;;;;;;;17.20;9.13;;;;;;;12.31;61.83;99440.91;4886194;29;20031;-94
2023/02/19 20:54:12;;;;;;;17.48;9.48;;;;;;;12.32;61.56;99444.41;4904093;29;20044;-96
2023/02/19 20:56:52;;;;;;;17.58;10.18;;;;;;;12.29;62.44;99448.50;4891760;29;20040;-95
2023/02/19 20:59:29;;;;;;;31.10;13.00;;;;;;;12.29;62.44;99453.09;4903243;29;20090;-96
2023/02/19 21:02:07;;;;;;;57.65;19.55;;;;;;;12.17;62.45;99433.72;4903493;29;20112;-96
2023/02/19 21:04:50;;;;;;;32.33;13.30;;;;;;;12.18;62.62;99448.81;4932566;28;20175;-96
2023/02/19 21:07:22;;;;;;;27.15;10.93;;;;;;;12.12;63.25;99448.03;4946145;28;20037;-94
2023/02/19 21:10:07;;;;;;;;;;;;;;;12.17;63.42;99449.91;4981093;28;20053;-96
2023/02/19 21:12:55;;;;;;;16.33;9.02;;;;;;;11.96;62.91;99431.09;4995701;28;19917;-95
2023/02/19 21:15:29;;;;;;;26.70;11.80;;;;;;;12.10;62.80;99461.81;4980882;28;20029;-95
2023/02/19 21:18:16;;;;;;;;;;;;;;;;;;;;;
2023/02/19 21:20:50;;;;;;;10.35;6.70;;;;;;;12.15;58.15;99469.06;4996915;28;20057;-96
2023/02/19 21:23:28;;;;;;;12.05;6.22;;;;;;;12.08;57.58;99457.78;4980231;28;20034;-95
2023/02/19 21:26:18;;;;;;;11.73;6.63;;;;;;;12.15;58.98;99452.06;4979871;28;20027;-95
2023/02/19 21:28:52;;;;;;;11.40;7.35;;;;;;;12.29;59.10;99464.69;4977868;28;20034;-95
2023/02/19 21:31:46;;;;;;;10.82;6.60;;;;;;;12.38;57.82;99472.22;4978027;28;20026;-95
2023/02/19 21:34:21;;;;;;;11.02;6.07;;;;;;;12.45;57.28;99478.09;4979943;28;20042;-95
2023/02/19 21:36:46;;;;;;;8.95;5.93;;;;;;;12.48;57.30;99467.56;4963900;28;20022;-93
2023/02/19 21:39:13;;;;;;;8.85;5.40;;;;;;;12.52;54.01;99475.91;4963324;28;20030;-94
2023/02/19 21:41:39;;;;;;;10.60;5.35;;;;;;;12.64;53.56;99484.50;4963846;28;20189;-93
2023/02/19 21:44:05;;;;;;;8.82;5.47;;;;;;;12.59;52.67;99468.31;4962483;28;20488;-93
2023/02/19 21:46:32;;;;;;;8.10;5.15;;;;;;;12.76;52.87;99491.44;4963292;28;20076;-94
2023/02/19 21:48:57;;;;;;;8.05;4.93;;;;;;;12.64;53.10;99457.47;4964269;28;20042;-94
2023/02/19 21:51:36;;;;;;;9.15;5.50;;;;;;;12.77;53.71;99480.38;4963294;28;20030;-93
2023/02/19 21:54:03;;;;;;;8.68;4.70;;;;;;;12.79;53.26;99483.59;4963337;28;20030;-94
2023/02/19 21:56:33;;;;;;;7.57;5.00;;;;;;;12.76;53.07;99497.66;4962823;28;20034;-93
2023/02/19 21:58:58;;;;;;;11.55;5.45;;;;;;;12.67;52.61;99492.03;4963212;28;20041;-94
2023/02/19 22:01:26;;;;;;;9.77;5.25;;;;;;;12.78;51.21;99490.06;4962994;28;20483;-93
2023/02/19 22:03:52;;;;;;;7.15;5.05;;;;;;;12.86;50.20;99494.06;4963231;28;20041;-93
2023/02/19 22:06:18;;;;;;;7.80;5.03;;;;;;;12.82;50.43;99501.94;4965844;28;20488;-94
2023/02/19 22:08:44;;;;;;;10.00;5.55;;;;;;;12.83;50.53;99510.88;4965650;28;20029;-93
2023/02/19 22:11:12;;;;;;;8.77;5.13;;;;;;;12.84;50.81;99515.16;4966530;28;20041;-94
2023/02/19 22:13:38;;;;;;;8.20;5.18;;;;;;;12.83;48.99;99521.69;4982680;28;20488;-94
2023/02/19 22:16:04;;;;;;;12.43;5.55;;;;;;;12.79;50.17;99507.09;4966608;28;20068;-93
2023/02/19 22:18:30;;;;;;;7.75;4.60;;;;;;;12.90;48.74;99519.47;4965110;28;20041;-94
2023/02/19 22:20:55;;;;;;;7.80;4.90;;;;;;;12.84;48.56;99513.28;4968224;28;20025;-94
2023/02/19 22:23:21;;;;;;;6.60;4.68;;;;;;;12.95;48.44;99519.44;4970307;28;20180;-94
2023/02/19 22:25:49;;;;;;;8.57;5.22;;;;;;;12.92;49.91;99518.09;4969347;28;20030;-94
2023/02/19 22:28:15;;;;;;;7.85;4.97;;;;;;;12.85;49.37;99520.31;4970195;28;20022;-93
2023/02/19 22:30:41;;;;;;;6.95;4.70;;;;;;;12.84;49.19;99512.47;4970094;28;20378;-94
2023/02/19 22:33:07;;;;;;;9.32;5.43;;;;;;;12.83;48.72;99500.06;4969956;28;20411;-94
2023/02/19 22:35:33;;;;;;;8.30;5.45;;;;;;;12.83;49.35;99505.47;4969155;28;20467;-94
2023/02/19 22:37:59;;;;;;;9.88;5.72;;;;;;;12.74;49.27;99503.34;4968956;28;20029;-93
2023/02/19 22:40:25;;;;;;;10.48;5.20;;;;;;;12.73;48.39;99504.44;4970149;28;20026;-94
2023/02/19 22:42:50;;;;;;;10.82;5.30;;;;;;;12.87;48.53;99520.84;4970247;28;20029;-93
2023/02/19 22:45:16;;;;;;;10.57;5.53;;;;;;;12.73;49.14;99504.44;4969502;28;20029;-93
2023/02/19 22:47:45;;;;;;;9.43;5.32;;;;;;;12.77;48.35;99510.09;4969189;28;20030;-94
2023/02/19 22:50:21;;;;;;;9.32;5.03;;;;;;;12.90;48.56;99525.66;4970890;28;20034;-93
2023/02/19 22:52:48;;;;;;;9.48;5.35;;;;;;;12.86;48.45;99519.19;4969819;28;20030;-94
2023/02/19 22:55:13;;;;;;;7.65;5.22;;;;;;;12.91;48.21;99530.00;4969474;28;20068;-94
2023/02/19 22:57:41;;;;;;;7.53;5.18;;;;;;;12.69;48.81;99506.06;4970458;28;20034;-94
2023/02/19 23:00:08;;;;;;;11.38;5.47;;;;;;;12.79;48.64;99523.31;4969177;28;20045;-94
2023/02/19 23:02:33;;;;;;;12.48;6.18;;;;;;;12.71;49.26;99508.50;4970396;28;20144;-95
2023/02/19 23:04:59;;;;;;;7.28;5.38;;;;;;;12.65;48.57;99498.81;4965999;28;20094;-93
2023/02/19 23:07:24;;;;;;;11.30;5.97;;;;;;;12.80;48.71;99511.41;4964730;28;20026;-94
2023/02/19 23:09:50;;;;;;;8.60;5.55;;;;;;;12.77;48.30;99512.78;4966041;28;20088;-93
2023/02/19 23:12:16;;;;;;;9.02;5.78;;;;;;;12.73;48.89;99511.72;4965662;28;20037;-94
2023/02/19 23:14:41;;;;;;;8.38;5.40;;;;;;;12.69;48.67;99508.78;4965600;28;20449;-93
2023/02/19 23:17:07;;;;;;;8.77;5.47;;;;;;;12.65;48.66;99498.81;4964640;28;20409;-93
2023/02/19 23:19:32;;;;;;;9.55;6.03;;;;;;;12.67;48.68;99508.25;4965486;28;20026;-93
2023/02/19 23:22:00;;;;;;;11.95;5.32;;;;;;;12.40;49.30;99478.94;4966082;28;20027;-94
2023/02/19 23:24:28;;;;;;;9.82;5.80;;;;;;;12.54;49.02;99489.97;4966939;28;20366;-93
2023/02/19 23:26:54;;;;;;;9.77;5.32;;;;;;;12.36;49.13;99475.19;4964976;28;20034;-94
2023/02/19 23:29:28;;;;;;;8.45;5.78;;;;;;;12.43;49.09;99499.19;4965691;28;20044;-93
2023/02/19 23:31:54;;;;;;;9.10;6.28;;;;;;;12.48;49.02;99497.28;4966828;28;20124;-93
2023/02/19 23:34:19;;;;;;;7.40;5.22;;;;;;;12.32;49.40;99493.81;4965187;28;20070;-93
2023/02/19 23:36:46;;;;;;;8.57;5.43;;;;;;;12.26;49.29;99486.84;4964816;28;20030;-95
2023/02/19 23:39:13;;;;;;;7.70;5.57;;;;;;;12.31;49.13;99502.22;4965670;28;20030;-93
2023/02/19 23:41:47;;;;;;;9.73;5.82;;;;;;;12.29;48.80;99488.19;4965547;28;20493;-94
2023/02/19 23:44:13;;;;;;;7.97;5.43;;;;;;;12.23;48.56;99492.78;4965167;28;20034;-93
2023/02/19 23:46:41;;;;;;;9.52;5.63;;;;;;;12.29;49.18;99513.28;4965222;28;20511;-93
2023/02/19 23:49:07;;;;;;;6.93;5.20;;;;;;;12.17;48.76;99493.91;4965077;28;20088;-94
2023/02/19 23:51:36;;;;;;;9.25;5.85;;;;;;;12.14;49.09;99494.47;4965144;28;20603;-93
2023/02/19 23:54:02;;;;;;;8.13;5.50;;;;;;;12.15;48.80;99509.56;4965987;28;20026;-92
2023/02/19 23:56:31;;;;;;;10.55;6.00;;;;;;;12.11;49.24;99509.28;4964895;28;20043;-94
2023/02/19 23:58:59;;;;;;;7.68;5.45;;;;;;;12.04;49.08;99508.78;4964872;28;20449;-94
